sensor_id;sensor_type;location;lat;lon;timestamp;P1;durP1;ratioP1;P2;durP2;ratioP2
71042;SDS011;58696;52.134;5.500;2023-05-07T00:00:56;5.78;;;4.00;;
71042;SDS011;58696;52.134;5.500;2023-05-07T00:03:25;6.10;;;3.50;;
71042;SDS011;58696;52.134;5.500;2023-05-07T00:05:55;5.35;;;3.78;;
71042;SDS011;58696;52.134;5.500;2023-05-07T00:08:21;3.75;;;3.35;;
71042;SDS011;58696;52.134;5.500;2023-05-07T00:10:48;5.05;;;3.70;;
71042;SDS011;58696;52.134;5.500;2023-05-07T00:13:17;5.95;;;3.63;;
71042;SDS011;58696;52.134;5.500;2023-05-07T00:15:46;5.05;;;3.78;;
71042;SDS011;58696;52.134;5.500;2023-05-07T00:18:15;3.72;;;3.30;;
71042;SDS011;58696;52.134;5.500;2023-05-07T00:20:47;5.00;;;3.63;;
71042;SDS011;58696;52.134;5.500;2023-05-07T00:23:13;7.63;;;3.90;;
71042;SDS011;58696;52.134;5.500;2023-05-07T00:25:42;6.22;;;3.38;;
71042;SDS011;58696;52.134;5.500;2023-05-07T00:28:09;7.63;;;3.70;;
71042;SDS011;58696;52.134;5.500;2023-05-07T00:30:35;6.35;;;3.67;;
71042;SDS011;58696;52.134;5.500;2023-05-07T00:33:02;8.30;;;3.97;;
71042;SDS011;58696;52.134;5.500;2023-05-07T00:35:31;4.50;;;3.40;;
71042;SDS011;58696;52.134;5.500;2023-05-07T00:37:58;4.65;;;3.60;;
71042;SDS011;58696;52.134;5.500;2023-05-07T00:40:29;5.38;;;3.70;;
71042;SDS011;58696;52.134;5.500;2023-05-07T00:42:58;4.32;;;3.78;;
71042;SDS011;58696;52.134;5.500;2023-05-07T00:45:27;6.45;;;4.13;;
71042;SDS011;58696;52.134;5.500;2023-05-07T00:47:57;4.63;;;3.92;;
71042;SDS011;58696;52.134;5.500;2023-05-07T00:50:28;4.63;;;3.60;;
71042;SDS011;58696;52.134;5.500;2023-05-07T00:52:58;4.85;;;3.90;;
71042;SDS011;58696;52.134;5.500;2023-05-07T00:55:25;5.20;;;3.63;;
71042;SDS011;58696;52.134;5.500;2023-05-07T00:57:52;4.60;;;3.95;;
71042;SDS011;58696;52.134;5.500;2023-05-07T01:00:21;4.75;;;3.72;;
71042;SDS011;58696;52.134;5.500;2023-05-07T01:02:48;5.22;;;3.88;;
71042;SDS011;58696;52.134;5.500;2023-05-07T01:05:15;5.90;;;4.13;;
71042;SDS011;58696;52.134;5.500;2023-05-07T01:07:45;11.52;;;3.75;;
71042;SDS011;58696;52.134;5.500;2023-05-07T01:10:14;5.15;;;3.90;;
71042;SDS011;58696;52.134;5.500;2023-05-07T01:12:41;4.55;;;3.85;;
71042;SDS011;58696;52.134;5.500;2023-05-07T01:15:09;9.32;;;4.10;;
71042;SDS011;58696;52.134;5.500;2023-05-07T01:17:37;4.95;;;3.90;;
71042;SDS011;58696;52.134;5.500;2023-05-07T01:20:06;4.25;;;3.63;;
71042;SDS011;58696;52.134;5.500;2023-05-07T01:22:34;6.93;;;4.25;;
71042;SDS011;58696;52.134;5.500;2023-05-07T01:25:03;8.93;;;4.60;;
71042;SDS011;58696;52.134;5.500;2023-05-07T01:27:31;7.65;;;3.55;;
71042;SDS011;58696;52.134;5.500;2023-05-07T01:29:59;5.80;;;4.20;;
71042;SDS011;58696;52.134;5.500;2023-05-07T01:32:43;6.85;;;3.53;;
71042;SDS011;58696;52.134;5.500;2023-05-07T01:35:15;5.22;;;4.10;;
71042;SDS011;58696;52.134;5.500;2023-05-07T01:37:46;5.05;;;4.00;;
71042;SDS011;58696;52.134;5.500;2023-05-07T01:40:14;4.60;;;4.15;;
71042;SDS011;58696;52.134;5.500;2023-05-07T01:42:43;5.45;;;4.50;;
71042;SDS011;58696;52.134;5.500;2023-05-07T01:45:12;5.57;;;4.93;;
71042;SDS011;58696;52.134;5.500;2023-05-07T01:47:42;11.45;;;4.63;;
71042;SDS011;58696;52.134;5.500;2023-05-07T01:50:09;5.72;;;4.43;;
71042;SDS011;58696;52.134;5.500;2023-05-07T01:52:39;7.50;;;4.70;;
71042;SDS011;58696;52.134;5.500;2023-05-07T01:55:06;7.10;;;4.30;;
71042;SDS011;58696;52.134;5.500;2023-05-07T01:57:35;5.07;;;4.40;;
71042;SDS011;58696;52.134;5.500;2023-05-07T02:00:04;6.90;;;4.70;;
71042;SDS011;58696;52.134;5.500;2023-05-07T02:02:35;7.28;;;4.25;;
71042;SDS011;58696;52.134;5.500;2023-05-07T02:05:02;6.18;;;4.50;;
71042;SDS011;58696;52.134;5.500;2023-05-07T02:07:31;5.15;;;4.65;;
71042;SDS011;58696;52.134;5.500;2023-05-07T02:09:57;6.47;;;4.30;;
71042;SDS011;58696;52.134;5.500;2023-05-07T02:12:26;5.40;;;4.47;;
71042;SDS011;58696;52.134;5.500;2023-05-07T02:14:53;7.40;;;4.75;;
71042;SDS011;58696;52.134;5.500;2023-05-07T02:17:24;4.35;;;3.95;;
71042;SDS011;58696;52.134;5.500;2023-05-07T02:19:52;6.43;;;4.72;;
71042;SDS011;58696;52.134;5.500;2023-05-07T02:22:19;6.30;;;4.85;;
71042;SDS011;58696;52.134;5.500;2023-05-07T02:24:45;5.40;;;4.47;;
71042;SDS011;58696;52.134;5.500;2023-05-07T02:27:14;5.07;;;3.90;;
71042;SDS011;58696;52.134;5.500;2023-05-07T02:29:45;6.00;;;4.20;;
71042;SDS011;58696;52.134;5.500;2023-05-07T02:32:12;9.43;;;4.07;;
71042;SDS011;58696;52.134;5.500;2023-05-07T02:34:38;4.88;;;4.22;;
71042;SDS011;58696;52.134;5.500;2023-05-07T02:37:10;6.78;;;4.03;;
71042;SDS011;58696;52.134;5.500;2023-05-07T02:39:36;4.50;;;4.10;;
71042;SDS011;58696;52.134;5.500;2023-05-07T02:42:03;4.63;;;3.80;;
71042;SDS011;58696;52.134;5.500;2023-05-07T02:44:29;6.72;;;4.03;;
71042;SDS011;58696;52.134;5.500;2023-05-07T02:46:57;4.53;;;4.13;;
71042;SDS011;58696;52.134;5.500;2023-05-07T02:49:24;5.93;;;4.55;;
71042;SDS011;58696;52.134;5.500;2023-05-07T02:51:50;6.90;;;4.50;;
71042;SDS011;58696;52.134;5.500;2023-05-07T02:54:19;6.55;;;4.57;;
71042;SDS011;58696;52.134;5.500;2023-05-07T02:56:48;6.95;;;4.60;;
71042;SDS011;58696;52.134;5.500;2023-05-07T02:59:17;6.45;;;4.60;;
71042;SDS011;58696;52.134;5.500;2023-05-07T03:01:44;5.93;;;5.32;;
71042;SDS011;58696;52.134;5.500;2023-05-07T03:04:11;7.25;;;5.57;;
71042;SDS011;58696;52.134;5.500;2023-05-07T03:06:40;7.97;;;5.75;;
71042;SDS011;58696;52.134;5.500;2023-05-07T03:09:06;8.15;;;5.35;;
71042;SDS011;58696;52.134;5.500;2023-05-07T03:11:33;10.35;;;5.65;;
71042;SDS011;58696;52.134;5.500;2023-05-07T03:14:00;6.35;;;5.63;;
71042;SDS011;58696;52.134;5.500;2023-05-07T03:16:29;5.75;;;5.20;;
71042;SDS011;58696;52.134;5.500;2023-05-07T03:18:55;8.45;;;5.88;;
71042;SDS011;58696;52.134;5.500;2023-05-07T03:21:22;6.25;;;5.13;;
71042;SDS011;58696;52.134;5.500;2023-05-07T03:23:53;7.07;;;5.55;;
71042;SDS011;58696;52.134;5.500;2023-05-07T03:26:22;8.00;;;6.07;;
71042;SDS011;58696;52.134;5.500;2023-05-07T03:28:51;7.15;;;5.50;;
71042;SDS011;58696;52.134;5.500;2023-05-07T03:31:18;7.57;;;5.88;;
71042;SDS011;58696;52.134;5.500;2023-05-07T03:33:51;7.45;;;5.97;;
71042;SDS011;58696;52.134;5.500;2023-05-07T03:36:24;8.50;;;6.00;;
71042;SDS011;58696;52.134;5.500;2023-05-07T03:38:53;7.75;;;6.18;;
71042;SDS011;58696;52.134;5.500;2023-05-07T03:41:22;8.30;;;5.70;;
71042;SDS011;58696;52.134;5.500;2023-05-07T03:43:49;8.48;;;6.18;;
71042;SDS011;58696;52.134;5.500;2023-05-07T03:46:15;7.50;;;5.97;;
71042;SDS011;58696;52.134;5.500;2023-05-07T03:48:44;7.32;;;6.10;;
71042;SDS011;58696;52.134;5.500;2023-05-07T03:51:13;9.82;;;6.45;;
71042;SDS011;58696;52.134;5.500;2023-05-07T03:53:44;6.80;;;5.88;;
71042;SDS011;58696;52.134;5.500;2023-05-07T03:56:11;13.82;;;6.72;;
71042;SDS011;58696;52.134;5.500;2023-05-07T03:58:37;14.50;;;7.20;;
71042;SDS011;58696;52.134;5.500;2023-05-07T04:01:09;7.65;;;6.85;;
71042;SDS011;58696;52.134;5.500;2023-05-07T04:03:38;10.77;;;7.30;;
71042;SDS011;58696;52.134;5.500;2023-05-07T04:06:04;10.00;;;6.32;;
71042;SDS011;58696;52.134;5.500;2023-05-07T04:08:33;9.35;;;6.82;;
71042;SDS011;58696;52.134;5.500;2023-05-07T04:11:02;10.90;;;7.00;;
71042;SDS011;58696;52.134;5.500;2023-05-07T04:13:29;9.10;;;7.50;;
71042;SDS011;58696;52.134;5.500;2023-05-07T04:15:56;8.82;;;6.57;;
71042;SDS011;58696;52.134;5.500;2023-05-07T04:18:23;15.60;;;7.25;;
71042;SDS011;58696;52.134;5.500;2023-05-07T04:20:51;7.40;;;6.47;;
71042;SDS011;58696;52.134;5.500;2023-05-07T04:23:21;7.70;;;6.97;;
71042;SDS011;58696;52.134;5.500;2023-05-07T04:25:47;10.52;;;7.18;;
71042;SDS011;58696;52.134;5.500;2023-05-07T04:28:14;7.50;;;6.72;;
71042;SDS011;58696;52.134;5.500;2023-05-07T04:30:43;11.73;;;7.32;;
71042;SDS011;58696;52.134;5.500;2023-05-07T04:33:12;7.70;;;7.00;;
71042;SDS011;58696;52.134;5.500;2023-05-07T04:35:42;9.65;;;7.00;;
71042;SDS011;58696;52.134;5.500;2023-05-07T04:38:14;9.10;;;7.25;;
71042;SDS011;58696;52.134;5.500;2023-05-07T04:40:44;9.82;;;6.85;;
71042;SDS011;58696;52.134;5.500;2023-05-07T04:43:11;8.05;;;7.25;;
71042;SDS011;58696;52.134;5.500;2023-05-07T04:45:37;11.50;;;7.35;;
71042;SDS011;58696;52.134;5.500;2023-05-07T04:48:08;9.95;;;7.43;;
71042;SDS011;58696;52.134;5.500;2023-05-07T04:50:43;10.40;;;7.65;;
71042;SDS011;58696;52.134;5.500;2023-05-07T04:53:09;9.75;;;7.03;;
71042;SDS011;58696;52.134;5.500;2023-05-07T04:55:36;12.63;;;7.40;;
71042;SDS011;58696;52.134;5.500;2023-05-07T04:58:02;10.82;;;7.70;;
71042;SDS011;58696;52.134;5.500;2023-05-07T05:00:31;10.32;;;8.10;;
71042;SDS011;58696;52.134;5.500;2023-05-07T05:02:58;8.43;;;7.53;;
71042;SDS011;58696;52.134;5.500;2023-05-07T05:05:26;10.05;;;7.38;;
71042;SDS011;58696;52.134;5.500;2023-05-07T05:07:55;9.27;;;7.55;;
71042;SDS011;58696;52.134;5.500;2023-05-07T05:10:22;11.40;;;8.30;;
71042;SDS011;58696;52.134;5.500;2023-05-07T05:12:50;11.80;;;8.23;;
71042;SDS011;58696;52.134;5.500;2023-05-07T05:15:19;11.32;;;8.63;;
71042;SDS011;58696;52.134;5.500;2023-05-07T05:17:50;12.52;;;9.27;;
71042;SDS011;58696;52.134;5.500;2023-05-07T05:20:17;11.88;;;8.55;;
71042;SDS011;58696;52.134;5.500;2023-05-07T05:22:44;10.93;;;8.40;;
71042;SDS011;58696;52.134;5.500;2023-05-07T05:25:11;11.40;;;8.13;;
71042;SDS011;58696;52.134;5.500;2023-05-07T05:27:37;10.73;;;8.73;;
71042;SDS011;58696;52.134;5.500;2023-05-07T05:30:04;9.85;;;8.18;;
71042;SDS011;58696;52.134;5.500;2023-05-07T05:32:36;11.77;;;8.70;;
71042;SDS011;58696;52.134;5.500;2023-05-07T05:35:03;10.07;;;8.80;;
71042;SDS011;58696;52.134;5.500;2023-05-07T05:37:32;10.88;;;8.55;;
71042;SDS011;58696;52.134;5.500;2023-05-07T05:39:58;11.82;;;8.80;;
71042;SDS011;58696;52.134;5.500;2023-05-07T05:42:25;11.48;;;8.80;;
71042;SDS011;58696;52.134;5.500;2023-05-07T05:44:51;11.23;;;9.00;;
71042;SDS011;58696;52.134;5.500;2023-05-07T05:47:21;14.32;;;9.25;;
71042;SDS011;58696;52.134;5.500;2023-05-07T05:49:49;12.02;;;9.18;;
71042;SDS011;58696;52.134;5.500;2023-05-07T05:52:15;12.32;;;8.77;;
71042;SDS011;58696;52.134;5.500;2023-05-07T05:54:43;10.93;;;8.43;;
71042;SDS011;58696;52.134;5.500;2023-05-07T05:57:12;12.68;;;9.23;;
71042;SDS011;58696;52.134;5.500;2023-05-07T05:59:41;14.82;;;9.65;;
71042;SDS011;58696;52.134;5.500;2023-05-07T06:02:07;11.63;;;9.10;;
71042;SDS011;58696;52.134;5.500;2023-05-07T06:04:36;17.40;;;9.40;;
71042;SDS011;58696;52.134;5.500;2023-05-07T06:07:03;10.23;;;9.10;;
71042;SDS011;58696;52.134;5.500;2023-05-07T06:09:29;14.25;;;9.13;;
71042;SDS011;58696;52.134;5.500;2023-05-07T06:11:56;10.23;;;9.13;;
71042;SDS011;58696;52.134;5.500;2023-05-07T06:14:25;13.05;;;8.77;;
71042;SDS011;58696;52.134;5.500;2023-05-07T06:16:54;10.73;;;8.73;;
71042;SDS011;58696;52.134;5.500;2023-05-07T06:19:21;10.07;;;8.65;;
71042;SDS011;58696;52.134;5.500;2023-05-07T06:21:50;17.00;;;9.45;;
71042;SDS011;58696;52.134;5.500;2023-05-07T06:24:16;11.77;;;9.02;;
71042;SDS011;58696;52.134;5.500;2023-05-07T06:26:45;10.00;;;8.88;;
71042;SDS011;58696;52.134;5.500;2023-05-07T06:29:14;9.68;;;8.68;;
71042;SDS011;58696;52.134;5.500;2023-05-07T06:31:43;11.73;;;9.32;;
71042;SDS011;58696;52.134;5.500;2023-05-07T06:34:12;12.13;;;8.95;;
71042;SDS011;58696;52.134;5.500;2023-05-07T06:36:41;10.10;;;8.90;;
71042;SDS011;58696;52.134;5.500;2023-05-07T06:39:08;10.65;;;8.95;;
71042;SDS011;58696;52.134;5.500;2023-05-07T06:41:34;12.90;;;8.43;;
71042;SDS011;58696;52.134;5.500;2023-05-07T06:44:02;10.53;;;9.07;;
71042;SDS011;58696;52.134;5.500;2023-05-07T06:46:31;10.13;;;9.10;;
71042;SDS011;58696;52.134;5.500;2023-05-07T06:48:58;10.38;;;8.98;;
71042;SDS011;58696;52.134;5.500;2023-05-07T06:51:29;11.27;;;9.02;;
71042;SDS011;58696;52.134;5.500;2023-05-07T06:54:01;12.48;;;9.60;;
71042;SDS011;58696;52.134;5.500;2023-05-07T06:56:27;11.75;;;9.48;;
71042;SDS011;58696;52.134;5.500;2023-05-07T06:58:56;9.65;;;8.43;;
71042;SDS011;58696;52.134;5.500;2023-05-07T07:01:28;12.05;;;9.68;;
71042;SDS011;58696;52.134;5.500;2023-05-07T07:03:55;13.88;;;9.43;;
71042;SDS011;58696;52.134;5.500;2023-05-07T07:06:21;13.02;;;8.70;;
71042;SDS011;58696;52.134;5.500;2023-05-07T07:08:48;10.18;;;9.07;;
71042;SDS011;58696;52.134;5.500;2023-05-07T07:11:17;11.77;;;9.48;;
71042;SDS011;58696;52.134;5.500;2023-05-07T07:13:43;10.90;;;9.52;;
71042;SDS011;58696;52.134;5.500;2023-05-07T07:16:12;15.18;;;9.93;;
71042;SDS011;58696;52.134;5.500;2023-05-07T07:18:39;17.15;;;9.80;;
71042;SDS011;58696;52.134;5.500;2023-05-07T07:21:10;16.58;;;9.70;;
71042;SDS011;58696;52.134;5.500;2023-05-07T07:23:37;11.70;;;9.68;;
71042;SDS011;58696;52.134;5.500;2023-05-07T07:26:03;11.48;;;9.63;;
71042;SDS011;58696;52.134;5.500;2023-05-07T07:28:32;11.75;;;9.75;;
71042;SDS011;58696;52.134;5.500;2023-05-07T07:31:01;11.63;;;9.95;;
71042;SDS011;58696;52.134;5.500;2023-05-07T07:33:30;11.75;;;10.00;;
71042;SDS011;58696;52.134;5.500;2023-05-07T07:35:57;14.35;;;9.77;;
71042;SDS011;58696;52.134;5.500;2023-05-07T07:38:23;17.63;;;10.20;;
71042;SDS011;58696;52.134;5.500;2023-05-07T07:43:17;10.15;;;9.15;;
71042;SDS011;58696;52.134;5.500;2023-05-07T07:45:51;11.38;;;9.30;;
71042;SDS011;58696;52.134;5.500;2023-05-07T07:48:18;14.05;;;10.52;;
71042;SDS011;58696;52.134;5.500;2023-05-07T07:50:50;12.77;;;9.70;;
71042;SDS011;58696;52.134;5.500;2023-05-07T07:53:22;10.68;;;9.57;;
71042;SDS011;58696;52.134;5.500;2023-05-07T07:55:51;11.50;;;10.40;;
71042;SDS011;58696;52.134;5.500;2023-05-07T07:58:23;11.20;;;9.98;;
71042;SDS011;58696;52.134;5.500;2023-05-07T08:00:52;11.80;;;10.65;;
71042;SDS011;58696;52.134;5.500;2023-05-07T08:03:26;13.25;;;10.95;;
71042;SDS011;58696;52.134;5.500;2023-05-07T08:05:56;11.95;;;10.38;;
71042;SDS011;58696;52.134;5.500;2023-05-07T08:08:25;13.70;;;11.13;;
71042;SDS011;58696;52.134;5.500;2023-05-07T08:10:55;11.82;;;10.63;;
71042;SDS011;58696;52.134;5.500;2023-05-07T08:13:21;11.85;;;10.65;;
71042;SDS011;58696;52.134;5.500;2023-05-07T08:15:50;11.73;;;9.82;;
71042;SDS011;58696;52.134;5.500;2023-05-07T08:18:17;12.90;;;10.52;;
71042;SDS011;58696;52.134;5.500;2023-05-07T08:20:44;12.73;;;11.43;;
71042;SDS011;58696;52.134;5.500;2023-05-07T08:23:13;12.10;;;10.90;;
71042;SDS011;58696;52.134;5.500;2023-05-07T08:25:42;11.50;;;10.27;;
71042;SDS011;58696;52.134;5.500;2023-05-07T08:28:11;12.07;;;10.70;;
71042;SDS011;58696;52.134;5.500;2023-05-07T08:30:43;14.50;;;9.82;;
71042;SDS011;58696;52.134;5.500;2023-05-07T08:33:15;13.82;;;10.23;;
71042;SDS011;58696;52.134;5.500;2023-05-07T08:35:44;13.85;;;10.88;;
71042;SDS011;58696;52.134;5.500;2023-05-07T08:38:10;13.48;;;10.93;;
71042;SDS011;58696;52.134;5.500;2023-05-07T08:40:37;11.07;;;9.95;;
71042;SDS011;58696;52.134;5.500;2023-05-07T08:43:05;13.23;;;11.13;;
71042;SDS011;58696;52.134;5.500;2023-05-07T08:45:35;12.13;;;10.80;;
71042;SDS011;58696;52.134;5.500;2023-05-07T08:48:08;13.57;;;12.18;;
71042;SDS011;58696;52.134;5.500;2023-05-07T08:50:36;18.13;;;11.18;;
71042;SDS011;58696;52.134;5.500;2023-05-07T08:53:03;12.55;;;11.25;;
71042;SDS011;58696;52.134;5.500;2023-05-07T08:55:30;16.17;;;11.57;;
71042;SDS011;58696;52.134;5.500;2023-05-07T08:57:58;14.05;;;11.93;;
71042;SDS011;58696;52.134;5.500;2023-05-07T09:00:27;13.38;;;11.43;;
71042;SDS011;58696;52.134;5.500;2023-05-07T09:02:56;14.85;;;11.35;;
71042;SDS011;58696;52.134;5.500;2023-05-07T09:05:23;13.60;;;12.15;;
71042;SDS011;58696;52.134;5.500;2023-05-07T09:07:49;18.05;;;12.77;;
71042;SDS011;58696;52.134;5.500;2023-05-07T09:10:20;16.20;;;12.77;;
71042;SDS011;58696;52.134;5.500;2023-05-07T09:12:50;14.38;;;12.88;;
71042;SDS011;58696;52.134;5.500;2023-05-07T09:15:17;12.43;;;11.15;;
71042;SDS011;58696;52.134;5.500;2023-05-07T09:17:44;15.93;;;12.32;;
71042;SDS011;58696;52.134;5.500;2023-05-07T09:20:13;14.88;;;12.45;;
71042;SDS011;58696;52.134;5.500;2023-05-07T09:22:42;15.02;;;11.77;;
71042;SDS011;58696;52.134;5.500;2023-05-07T09:25:10;14.55;;;12.57;;
71042;SDS011;58696;52.134;5.500;2023-05-07T09:27:41;13.25;;;11.93;;
71042;SDS011;58696;52.134;5.500;2023-05-07T09:30:10;14.80;;;12.52;;
71042;SDS011;58696;52.134;5.500;2023-05-07T09:32:39;15.00;;;13.30;;
71042;SDS011;58696;52.134;5.500;2023-05-07T09:35:15;16.48;;;13.07;;
71042;SDS011;58696;52.134;5.500;2023-05-07T09:37:45;17.58;;;12.63;;
71042;SDS011;58696;52.134;5.500;2023-05-07T09:40:24;14.10;;;12.65;;
71042;SDS011;58696;52.134;5.500;2023-05-07T09:42:55;17.88;;;12.80;;
71042;SDS011;58696;52.134;5.500;2023-05-07T09:45:22;15.10;;;12.75;;
71042;SDS011;58696;52.134;5.500;2023-05-07T09:47:54;14.13;;;11.98;;
71042;SDS011;58696;52.134;5.500;2023-05-07T09:50:26;15.75;;;11.48;;
71042;SDS011;58696;52.134;5.500;2023-05-07T09:52:56;15.05;;;11.63;;
71042;SDS011;58696;52.134;5.500;2023-05-07T09:55:23;16.20;;;12.35;;
71042;SDS011;58696;52.134;5.500;2023-05-07T09:57:53;16.38;;;11.57;;
71042;SDS011;58696;52.134;5.500;2023-05-07T10:00:24;12.98;;;11.63;;
71042;SDS011;58696;52.134;5.500;2023-05-07T10:02:52;15.18;;;11.48;;
71042;SDS011;58696;52.134;5.500;2023-05-07T10:05:22;20.38;;;11.45;;
71042;SDS011;58696;52.134;5.500;2023-05-07T10:07:50;12.20;;;10.95;;
71042;SDS011;58696;52.134;5.500;2023-05-07T10:10:19;13.57;;;11.40;;
71042;SDS011;58696;52.134;5.500;2023-05-07T10:12:48;13.63;;;11.52;;
71042;SDS011;58696;52.134;5.500;2023-05-07T10:15:17;13.23;;;10.82;;
71042;SDS011;58696;52.134;5.500;2023-05-07T10:17:44;16.83;;;11.35;;
71042;SDS011;58696;52.134;5.500;2023-05-07T10:20:13;13.90;;;11.98;;
71042;SDS011;58696;52.134;5.500;2023-05-07T10:22:44;14.77;;;11.15;;
71042;SDS011;58696;52.134;5.500;2023-05-07T10:27:51;12.73;;;11.43;;
71042;SDS011;58696;52.134;5.500;2023-05-07T10:30:44;14.52;;;12.15;;
71042;SDS011;58696;52.134;5.500;2023-05-07T10:33:32;15.38;;;11.60;;
71042;SDS011;58696;52.134;5.500;2023-05-07T10:36:01;14.55;;;11.65;;
71042;SDS011;58696;52.134;5.500;2023-05-07T10:38:33;15.95;;;10.90;;
71042;SDS011;58696;52.134;5.500;2023-05-07T10:40:59;13.77;;;11.98;;
71042;SDS011;58696;52.134;5.500;2023-05-07T10:43:29;13.23;;;11.57;;
71042;SDS011;58696;52.134;5.500;2023-05-07T10:56:39;14.80;;;12.23;;
71042;SDS011;58696;52.134;5.500;2023-05-07T10:59:30;18.15;;;12.50;;
71042;SDS011;58696;52.134;5.500;2023-05-07T11:02:00;14.98;;;12.57;;
71042;SDS011;58696;52.134;5.500;2023-05-07T11:04:30;15.23;;;12.07;;
71042;SDS011;58696;52.134;5.500;2023-05-07T11:15:09;14.63;;;12.60;;
71042;SDS011;58696;52.134;5.500;2023-05-07T11:17:57;19.23;;;13.52;;
71042;SDS011;58696;52.134;5.500;2023-05-07T11:20:49;18.38;;;13.88;;
71042;SDS011;58696;52.134;5.500;2023-05-07T11:28:28;15.50;;;12.52;;
71042;SDS011;58696;52.134;5.500;2023-05-07T11:30:57;16.00;;;13.18;;
71042;SDS011;58696;52.134;5.500;2023-05-07T11:33:27;14.98;;;12.98;;
71042;SDS011;58696;52.134;5.500;2023-05-07T11:35:53;13.77;;;12.13;;
71042;SDS011;58696;52.134;5.500;2023-05-07T11:38:25;16.77;;;12.38;;
71042;SDS011;58696;52.134;5.500;2023-05-07T11:40:52;13.55;;;12.13;;
71042;SDS011;58696;52.134;5.500;2023-05-07T11:43:25;14.85;;;12.30;;
71042;SDS011;58696;52.134;5.500;2023-05-07T11:45:52;14.02;;;11.48;;
71042;SDS011;58696;52.134;5.500;2023-05-07T11:48:32;16.80;;;11.73;;
71042;SDS011;58696;52.134;5.500;2023-05-07T11:51:06;13.73;;;11.95;;
71042;SDS011;58696;52.134;5.500;2023-05-07T11:53:40;14.83;;;11.70;;
71042;SDS011;58696;52.134;5.500;2023-05-07T11:56:08;17.27;;;11.90;;
71042;SDS011;58696;52.134;5.500;2023-05-07T11:58:40;14.70;;;11.82;;
71042;SDS011;58696;52.134;5.500;2023-05-07T12:01:10;13.85;;;12.45;;
71042;SDS011;58696;52.134;5.500;2023-05-07T12:03:41;14.27;;;11.73;;
71042;SDS011;58696;52.134;5.500;2023-05-07T12:06:09;14.10;;;11.98;;
71042;SDS011;58696;52.134;5.500;2023-05-07T12:08:38;14.43;;;12.05;;
71042;SDS011;58696;52.134;5.500;2023-05-07T12:11:08;16.10;;;11.77;;
71042;SDS011;58696;52.134;5.500;2023-05-07T12:13:37;13.65;;;11.88;;
71042;SDS011;58696;52.134;5.500;2023-05-07T12:16:06;14.13;;;11.07;;
71042;SDS011;58696;52.134;5.500;2023-05-07T12:18:34;10.65;;;9.65;;
71042;SDS011;58696;52.134;5.500;2023-05-07T12:21:02;14.35;;;10.95;;
71042;SDS011;58696;52.134;5.500;2023-05-07T12:23:33;12.23;;;9.90;;
71042;SDS011;58696;52.134;5.500;2023-05-07T12:26:01;14.30;;;10.75;;
71042;SDS011;58696;52.134;5.500;2023-05-07T12:28:36;13.40;;;10.20;;
71042;SDS011;58696;52.134;5.500;2023-05-07T12:31:05;17.05;;;10.63;;
71042;SDS011;58696;52.134;5.500;2023-05-07T12:33:34;15.35;;;11.25;;
71042;SDS011;58696;52.134;5.500;2023-05-07T12:36:05;15.35;;;9.40;;
71042;SDS011;58696;52.134;5.500;2023-05-07T12:38:38;12.38;;;9.85;;
71042;SDS011;58696;52.134;5.500;2023-05-07T12:41:08;10.80;;;8.48;;
71042;SDS011;58696;52.134;5.500;2023-05-07T12:43:38;12.90;;;9.32;;
71042;SDS011;58696;52.134;5.500;2023-05-07T12:46:07;10.10;;;9.00;;
71042;SDS011;58696;52.134;5.500;2023-05-07T12:48:43;11.82;;;9.73;;
71042;SDS011;58696;52.134;5.500;2023-05-07T12:51:11;14.77;;;10.05;;
71042;SDS011;58696;52.134;5.500;2023-05-07T12:53:44;11.32;;;9.57;;
71042;SDS011;58696;52.134;5.500;2023-05-07T12:56:11;9.55;;;8.48;;
71042;SDS011;58696;52.134;5.500;2023-05-07T12:58:43;13.18;;;8.52;;
71042;SDS011;58696;52.134;5.500;2023-05-07T13:01:10;10.50;;;9.07;;
71042;SDS011;58696;52.134;5.500;2023-05-07T13:03:41;10.73;;;9.48;;
71042;SDS011;58696;52.134;5.500;2023-05-07T13:06:16;15.93;;;10.18;;
71042;SDS011;58696;52.134;5.500;2023-05-07T13:08:45;11.98;;;9.50;;
71042;SDS011;58696;52.134;5.500;2023-05-07T13:11:12;14.25;;;9.88;;
71042;SDS011;58696;52.134;5.500;2023-05-07T13:13:46;11.75;;;9.52;;
71042;SDS011;58696;52.134;5.500;2023-05-07T13:16:13;10.68;;;9.52;;
71042;SDS011;58696;52.134;5.500;2023-05-07T13:18:39;10.83;;;9.73;;
71042;SDS011;58696;52.134;5.500;2023-05-07T13:21:07;13.18;;;9.90;;
71042;SDS011;58696;52.134;5.500;2023-05-07T13:23:33;27.00;;;10.80;;
71042;SDS011;58696;52.134;5.500;2023-05-07T13:26:00;13.70;;;10.82;;
71042;SDS011;58696;52.134;5.500;2023-05-07T13:28:36;12.30;;;10.13;;
71042;SDS011;58696;52.134;5.500;2023-05-07T13:31:05;15.77;;;11.07;;
71042;SDS011;58696;52.134;5.500;2023-05-07T13:33:32;14.35;;;11.05;;
71042;SDS011;58696;52.134;5.500;2023-05-07T13:36:03;13.23;;;11.07;;
71042;SDS011;58696;52.134;5.500;2023-05-07T13:38:32;13.77;;;11.40;;
71042;SDS011;58696;52.134;5.500;2023-05-07T13:40:59;12.63;;;10.95;;
71042;SDS011;58696;52.134;5.500;2023-05-07T13:43:25;12.48;;;10.77;;
71042;SDS011;58696;52.134;5.500;2023-05-07T13:45:57;13.18;;;10.73;;
71042;SDS011;58696;52.134;5.500;2023-05-07T13:48:25;11.10;;;9.80;;
71042;SDS011;58696;52.134;5.500;2023-05-07T13:50:52;11.35;;;9.90;;
71042;SDS011;58696;52.134;5.500;2023-05-07T13:53:24;11.60;;;10.13;;
71042;SDS011;58696;52.134;5.500;2023-05-07T13:55:51;10.67;;;9.67;;
71042;SDS011;58696;52.134;5.500;2023-05-07T14:00:50;12.73;;;10.13;;
71042;SDS011;58696;52.134;5.500;2023-05-07T14:03:17;13.10;;;10.38;;
71042;SDS011;58696;52.134;5.500;2023-05-07T14:05:46;11.38;;;9.55;;
71042;SDS011;58696;52.134;5.500;2023-05-07T14:08:15;15.48;;;9.60;;
71042;SDS011;58696;52.134;5.500;2023-05-07T14:10:43;13.68;;;8.55;;
71042;SDS011;58696;52.134;5.500;2023-05-07T14:13:10;9.38;;;8.10;;
71042;SDS011;58696;52.134;5.500;2023-05-07T14:15:39;14.50;;;9.73;;
71042;SDS011;58696;52.134;5.500;2023-05-07T14:18:06;12.15;;;9.30;;
71042;SDS011;58696;52.134;5.500;2023-05-07T14:20:33;11.10;;;8.93;;
71042;SDS011;58696;52.134;5.500;2023-05-07T14:23:03;11.05;;;8.35;;
71042;SDS011;58696;52.134;5.500;2023-05-07T14:25:32;11.65;;;8.70;;
71042;SDS011;58696;52.134;5.500;2023-05-07T14:27:59;9.93;;;7.38;;
71042;SDS011;58696;52.134;5.500;2023-05-07T14:30:28;11.32;;;7.95;;
71042;SDS011;58696;52.134;5.500;2023-05-07T14:32:56;11.15;;;9.48;;
71042;SDS011;58696;52.134;5.500;2023-05-07T14:35:25;10.30;;;8.60;;
71042;SDS011;58696;52.134;5.500;2023-05-07T14:37:52;13.43;;;8.88;;
71042;SDS011;58696;52.134;5.500;2023-05-07T14:40:19;12.10;;;8.13;;
71042;SDS011;58696;52.134;5.500;2023-05-07T14:42:45;9.95;;;8.95;;
71042;SDS011;58696;52.134;5.500;2023-05-07T14:45:12;10.52;;;8.82;;
71042;SDS011;58696;52.134;5.500;2023-05-07T14:47:39;16.98;;;9.73;;
71042;SDS011;58696;52.134;5.500;2023-05-07T14:50:08;13.63;;;8.68;;
71042;SDS011;58696;52.134;5.500;2023-05-07T14:52:35;11.13;;;7.43;;
71042;SDS011;58696;52.134;5.500;2023-05-07T14:55:01;11.40;;;7.90;;
71042;SDS011;58696;52.134;5.500;2023-05-07T14:57:28;10.98;;;8.35;;
71042;SDS011;58696;52.134;5.500;2023-05-07T14:59:58;11.00;;;8.35;;
71042;SDS011;58696;52.134;5.500;2023-05-07T15:02:24;12.70;;;9.68;;
71042;SDS011;58696;52.134;5.500;2023-05-07T15:04:51;16.85;;;10.18;;
71042;SDS011;58696;52.134;5.500;2023-05-07T15:07:18;12.90;;;10.20;;
71042;SDS011;58696;52.134;5.500;2023-05-07T15:09:47;12.93;;;10.80;;
71042;SDS011;58696;52.134;5.500;2023-05-07T15:12:14;11.75;;;10.52;;
71042;SDS011;58696;52.134;5.500;2023-05-07T15:14:44;14.57;;;10.27;;